Time,TemperatureF,DewpointF,PressureIn,WindDirection,WindDirectionDegrees,WindSpeedMPH,WindSpeedGustMPH,Humidity,HourlyPrecipIn,Conditions,Clouds,dailyrainin,SoftwareType,DateUTC
2013-03-10 00:00:00,47.5,32.6,30.30,WNW,287,0.0,11.0,56,0.00,,,0.00,Weather View 32 v70,2013-03-10 08:00:00,
2013-03-10 00:10:00,46.9,31.1,30.30,WNW,287,0.0,6.0,54,0.00,,,0.00,Weather View 32 v70,2013-03-10 08:10:00,
2013-03-10 00:15:00,46.7,30.0,30.30,WNW,287,0.0,6.0,52,0.00,,,0.00,Weather View 32 v70,2013-03-10 08:15:00,
2013-03-10 00:20:00,46.8,29.1,30.30,WNW,287,0.0,6.0,50,0.00,,,0.00,Weather View 32 v70,2013-03-10 08:20:00,
2013-03-10 00:25:00,46.9,28.7,30.30,WNW,287,0.0,6.0,49,0.00,,,0.00,Weather View 32 v70,2013-03-10 08:25:00,
2013-03-10 00:30:00,46.8,28.1,30.30,WNW,287,0.0,2.0,48,0.00,,,0.00,Weather View 32 v70,2013-03-10 08:30:00,
2013-03-10 00:35:00,46.6,31.3,30.30,WNW,287,0.0,2.0,55,0.00,,,0.00,Weather View 32 v70,2013-03-10 08:35:00,
2013-03-10 00:45:00,46.0,30.7,30.30,WNW,287,0.0,2.0,55,0.00,,,0.00,Weather View 32 v70,2013-03-10 08:45:00,
2013-03-10 00:55:00,45.6,30.8,30.30,WNW,287,0.0,2.0,56,0.00,,,0.00,Weather View 32 v70,2013-03-10 08:55:00,
2013-03-10 01:00:00,45.5,31.6,30.30,WNW,287,0.0,2.0,58,0.00,,,0.00,Weather View 32 v70,2013-03-10 09:00:00,
2013-03-10 01:05:00,45.4,31.9,30.30,WNW,287,0.0,2.0,59,0.00,,,0.00,Weather View 32 v70,2013-03-10 09:05:00,
2013-03-10 01:10:00,45.2,31.7,30.31,WNW,286,2.0,2.0,59,0.00,,,0.00,Weather View 32 v70,2013-03-10 09:10:00,
2013-03-10 01:15:00,45.2,31.7,30.31,WNW,287,0.0,4.0,59,0.00,,,0.00,Weather View 32 v70,2013-03-10 09:15:00,
2013-03-10 01:20:00,45.3,32.2,30.31,WNW,287,0.0,4.0,60,0.00,,,0.00,Weather View 32 v70,2013-03-10 09:20:00,
2013-03-10 01:25:00,45.2,31.7,30.31,WNW,287,0.0,4.0,59,0.00,,,0.00,Weather View 32 v70,2013-03-10 09:25:00,
2013-03-10 01:30:00,45.2,31.7,30.31,WNW,287,0.0,4.0,59,0.00,,,0.00,Weather View 32 v70,2013-03-10 09:30:00,
2013-03-10 01:35:00,45.1,31.6,30.31,WNW,287,0.0,4.0,59,0.00,,,0.00,Weather View 32 v70,2013-03-10 09:35:00,
2013-03-10 01:40:00,45.1,32.0,30.31,WNW,287,0.0,4.0,60,0.00,,,0.00,Weather View 32 v70,2013-03-10 09:40:00,
2013-03-10 01:45:00,44.9,31.4,30.31,WNW,287,0.0,4.0,59,0.00,,,0.00,Weather View 32 v70,2013-03-10 09:45:00,
2013-03-10 01:55:00,44.5,29.8,30.31,WNW,287,0.0,4.0,56,0.00,,,0.00,Weather View 32 v70,2013-03-10 09:55:00,
2013-03-10 03:05:00,43.9,29.6,30.30,WNW,287,0.0,4.0,57,0.00,,,0.00,Weather View 32 v70,2013-03-10 10:05:00,
2013-03-10 03:10:00,43.6,29.8,30.31,WNW,287,0.0,4.0,58,0.00,,,0.00,Weather View 32 v70,2013-03-10 10:10:00,
2013-03-10 03:20:00,43.2,29.4,30.30,WNW,287,0.0,2.0,58,0.00,,,0.00,Weather View 32 v70,2013-03-10 10:20:00,
2013-03-10 03:25:00,43.2,29.0,30.30,WNW,287,0.0,2.0,57,0.00,,,0.00,Weather View 32 v70,2013-03-10 10:25:00,
2013-03-10 03:30:00,43.2,29.4,30.30,WNW,287,0.0,2.0,58,0.00,,,0.00,Weather View 32 v70,2013-03-10 10:30:00,
2013-03-10 03:35:00,42.9,28.7,30.30,WNW,287,0.0,2.0,57,0.00,,,0.00,Weather View 32 v70,2013-03-10 10:35:00,
2013-03-10 03:40:00,42.8,28.2,30.30,WNW,287,0.0,2.0,56,0.00,,,0.00,Weather View 32 v70,2013-03-10 10:40:00,
2013-03-10 03:45:00,42.8,28.6,30.30,WNW,287,0.0,2.0,57,0.00,,,0.00,Weather View 32 v70,2013-03-10 10:45:00,
2013-03-10 03:50:00,42.8,28.6,30.30,WNW,287,0.0,1.0,57,0.00,,,0.00,Weather View 32 v70,2013-03-10 10:50:00,
2013-03-10 03:55:00,42.8,28.6,30.30,WNW,287,0.0,1.0,57,0.00,,,0.00,Weather View 32 v70,2013-03-10 10:55:00,
2013-03-10 04:00:00,42.8,29.4,30.30,WNW,287,0.0,2.0,59,0.00,,,0.00,Weather View 32 v70,2013-03-10 11:00:00,
2013-03-10 04:05:00,42.5,29.6,30.30,WNW,287,0.0,2.0,60,0.00,,,0.00,Weather View 32 v70,2013-03-10 11:05:00,
2013-03-10 04:10:00,42.3,29.8,30.30,WNW,287,1.0,2.0,61,0.00,,,0.00,Weather View 32 v70,2013-03-10 11:10:00,
2013-03-10 04:15:00,42.2,30.1,30.30,WNW,287,0.0,2.0,62,0.00,,,0.00,Weather View 32 v70,2013-03-10 11:15:00,
2013-03-10 04:20:00,41.9,30.6,30.30,WNW,287,1.0,2.0,64,0.00,,,0.00,Weather View 32 v70,2013-03-10 11:20:00,
2013-03-10 04:25:00,41.8,30.5,30.30,WNW,287,0.0,2.0,64,0.00,,,0.00,Weather View 32 v70,2013-03-10 11:25:00,
2013-03-10 04:30:00,41.8,31.3,30.30,WNW,287,0.0,2.0,66,0.00,,,0.00,Weather View 32 v70,2013-03-10 11:30:00,
2013-03-10 04:35:00,41.6,31.1,30.30,WNW,287,0.0,2.0,66,0.00,,,0.00,Weather View 32 v70,2013-03-10 11:35:00,
2013-03-10 04:40:00,41.6,30.7,30.30,WNW,287,0.0,2.0,65,0.00,,,0.00,Weather View 32 v70,2013-03-10 11:40:00,
2013-03-10 04:45:00,41.5,31.0,30.30,WNW,287,0.0,2.0,66,0.00,,,0.00,Weather View 32 v70,2013-03-10 11:45:00,
2013-03-10 04:50:00,41.6,30.7,30.30,WNW,287,1.0,2.0,65,0.00,,,0.00,Weather View 32 v70,2013-03-10 11:50:00,
2013-03-10 05:00:00,41.4,30.5,30.31,WNW,286,0.0,4.0,65,0.00,,,0.00,Weather View 32 v70,2013-03-10 12:00:00,
2013-03-10 05:05:00,41.3,30.4,30.31,WNW,287,1.0,4.0,65,0.00,,,0.00,Weather View 32 v70,2013-03-10 12:05:00,
2013-03-10 05:10:00,41.2,29.9,30.31,WNW,287,0.0,4.0,64,0.00,,,0.00,Weather View 32 v70,2013-03-10 12:10:00,
2013-03-10 05:15:00,41.3,30.0,30.31,WNW,287,1.0,4.0,64,0.00,,,0.00,Weather View 32 v70,2013-03-10 12:15:00,
2013-03-10 05:25:00,41.6,29.5,30.31,WNW,286,4.0,5.0,62,0.00,,,0.00,Weather View 32 v70,2013-03-10 12:25:00,
2013-03-10 05:30:00,41.7,29.6,30.31,WNW,286,2.0,5.0,62,0.00,,,0.00,Weather View 32 v70,2013-03-10 12:30:00,
2013-03-10 05:35:00,41.7,30.0,30.31,WNW,287,0.0,5.0,63,0.00,,,0.00,Weather View 32 v70,2013-03-10 12:35:00,
2013-03-10 05:40:00,41.8,29.7,30.31,WNW,287,1.0,5.0,62,0.00,,,0.00,Weather View 32 v70,2013-03-10 12:40:00,
2013-03-10 05:45:00,42.0,29.5,30.31,WNW,287,0.0,5.0,61,0.00,,,0.00,Weather View 32 v70,2013-03-10 12:45:00,
2013-03-10 05:55:00,42.0,28.7,30.30,WNW,287,0.0,5.0,59,0.00,,,0.00,Weather View 32 v70,2013-03-10 12:55:00,
2013-03-10 06:00:00,42.0,28.3,30.30,WNW,287,1.0,5.0,58,0.00,,,0.00,Weather View 32 v70,2013-03-10 13:00:00,
2013-03-10 06:05:00,41.9,29.4,30.31,WNW,285,2.0,7.0,61,0.00,,,0.00,Weather View 32 v70,2013-03-10 13:05:00,
2013-03-10 06:10:00,41.3,28.4,30.31,WNW,285,1.0,7.0,60,0.00,,,0.00,Weather View 32 v70,2013-03-10 13:10:00,
2013-03-10 06:15:00,41.2,29.5,30.31,WNW,285,2.0,7.0,63,0.00,,,0.00,Weather View 32 v70,2013-03-10 13:15:00,
2013-03-10 06:20:00,41.1,29.5,30.31,WNW,285,0.0,7.0,63,0.00,,,0.00,Weather View 32 v70,2013-03-10 13:20:00,
2013-03-10 06:25:00,41.2,28.8,30.31,WNW,285,0.0,7.0,61,0.00,,,0.00,Weather View 32 v70,2013-03-10 13:25:00,
2013-03-10 06:30:00,41.3,28.8,30.31,WNW,285,0.0,7.0,61,0.00,,,0.00,Weather View 32 v70,2013-03-10 13:30:00,
2013-03-10 06:35:00,41.5,29.0,30.31,WNW,285,0.0,7.0,61,0.00,,,0.00,Weather View 32 v70,2013-03-10 13:35:00,
2013-03-10 06:40:00,41.7,29.2,30.31,WNW,285,0.0,7.0,61,0.00,,,0.00,Weather View 32 v70,2013-03-10 13:40:00,
2013-03-10 06:45:00,41.8,29.3,30.31,WNW,285,0.0,7.0,61,0.00,,,0.00,Weather View 32 v70,2013-03-10 13:45:00,
2013-03-10 06:50:00,42.0,29.1,30.32,WNW,285,1.0,7.0,60,0.00,,,0.00,Weather View 32 v70,2013-03-10 13:50:00,
2013-03-10 06:55:00,41.8,29.7,30.31,WNW,285,0.0,7.0,62,0.00,,,0.00,Weather View 32 v70,2013-03-10 13:55:00,
2013-03-10 07:00:00,41.6,28.7,30.31,WNW,285,0.0,7.0,60,0.00,,,0.00,Weather View 32 v70,2013-03-10 14:00:00,
2013-03-10 07:05:00,41.4,28.5,30.32,WNW,285,0.0,7.0,60,0.00,,,0.00,Weather View 32 v70,2013-03-10 14:05:00,
2013-03-10 07:10:00,41.2,28.4,30.32,WNW,285,0.0,4.0,60,0.00,,,0.00,Weather View 32 v70,2013-03-10 14:10:00,
2013-03-10 07:15:00,41.0,27.8,30.32,WNW,285,0.0,4.0,59,0.00,,,0.00,Weather View 32 v70,2013-03-10 14:15:00,
2013-03-10 07:20:00,41.0,29.0,30.32,WNW,285,1.0,4.0,62,0.00,,,0.00,Weather View 32 v70,2013-03-10 14:20:00,
2013-03-10 07:30:00,41.0,29.4,30.32,WNW,285,0.0,4.0,63,0.00,,,0.00,Weather View 32 v70,2013-03-10 14:30:00,
2013-03-10 07:35:00,40.9,29.6,30.32,WNW,285,0.0,4.0,64,0.00,,,0.00,Weather View 32 v70,2013-03-10 14:35:00,
2013-03-10 07:40:00,40.9,29.6,30.32,WNW,285,0.0,4.0,64,0.00,,,0.00,Weather View 32 v70,2013-03-10 14:40:00,
2013-03-10 07:48:00,40.9,30.0,30.33,WNW,285,0.0,4.0,65,0.00,,,0.00,Weather View 32 v70,2013-03-10 14:48:00,
2013-03-10 07:55:00,41.0,29.7,30.34,WNW,285,0.0,2.0,64,0.00,,,0.00,Weather View 32 v70,2013-03-10 14:55:00,
2013-03-10 08:00:00,41.6,29.9,30.34,WNW,285,0.0,2.0,63,0.00,,,0.00,Weather View 32 v70,2013-03-10 15:00:00,
2013-03-10 08:05:00,42.2,29.7,30.34,WNW,284,0.0,2.0,61,0.00,,,0.00,Weather View 32 v70,2013-03-10 15:05:00,
2013-03-10 08:10:00,42.9,30.0,30.34,WNW,284,1.0,4.0,60,0.00,,,0.00,Weather View 32 v70,2013-03-10 15:10:00,
2013-03-10 08:15:00,43.4,30.0,30.34,WNW,284,0.0,4.0,59,0.00,,,0.00,Weather View 32 v70,2013-03-10 15:15:00,
2013-03-10 08:20:00,44.0,30.6,30.35,WNW,284,0.0,4.0,59,0.00,,,0.00,Weather View 32 v70,2013-03-10 15:20:00,
2013-03-10 08:25:00,44.6,31.1,30.34,WNW,284,0.0,4.0,59,0.00,,,0.00,Weather View 32 v70,2013-03-10 15:25:00,
2013-03-10 08:30:00,45.1,31.6,30.35,WNW,284,1.0,4.0,59,0.00,,,0.00,Weather View 32 v70,2013-03-10 15:30:00,
2013-03-10 08:35:00,45.7,32.6,30.36,WNW,284,0.0,4.0,60,0.00,,,0.00,Weather View 32 v70,2013-03-10 15:35:00,
2013-03-10 08:40:00,46.5,32.9,30.36,WNW,284,0.0,4.0,59,0.00,,,0.00,Weather View 32 v70,2013-03-10 15:40:00,
2013-03-10 08:45:00,47.2,33.2,30.36,WNW,284,0.0,4.0,58,0.00,,,0.00,Weather View 32 v70,2013-03-10 15:45:00,
2013-03-10 08:55:00,48.2,34.5,30.36,WNW,284,1.0,4.0,59,0.00,,,0.00,Weather View 32 v70,2013-03-10 15:55:00,
2013-03-10 09:00:00,48.7,35.0,30.36,WNW,283,0.0,4.0,59,0.00,,,0.00,Weather View 32 v70,2013-03-10 16:00:00,
2013-03-10 09:10:00,49.8,36.0,30.35,South,179,0.0,4.0,59,0.00,,,0.00,Weather View 32 v70,2013-03-10 16:10:00,
2013-03-10 09:15:00,50.0,36.2,30.36,South,169,0.0,4.0,59,0.00,,,0.00,Weather View 32 v70,2013-03-10 16:15:00,
2013-03-10 09:20:00,50.2,37.2,30.36,East,96,0.0,4.0,61,0.00,,,0.00,Weather View 32 v70,2013-03-10 16:20:00,
2013-03-10 09:25:00,50.7,38.1,30.36,East,98,0.0,4.0,62,0.00,,,0.00,Weather View 32 v70,2013-03-10 16:25:00,
2013-03-10 09:30:00,51.0,38.4,30.36,East,82,2.0,6.0,62,0.00,,,0.00,Weather View 32 v70,2013-03-10 16:30:00,
2013-03-10 09:35:00,51.0,38.8,30.36,East,79,2.0,6.0,63,0.00,,,0.00,Weather View 32 v70,2013-03-10 16:35:00,
2013-03-10 09:40:00,51.3,39.9,30.35,East,86,0.0,6.0,65,0.00,,,0.00,Weather View 32 v70,2013-03-10 16:40:00,
2013-03-10 09:45:00,51.6,40.6,30.36,ESE,107,4.0,6.0,66,0.00,,,0.00,Weather View 32 v70,2013-03-10 16:45:00,
2013-03-10 09:50:00,52.1,41.5,30.35,East,80,4.0,6.0,67,0.00,,,0.00,Weather View 32 v70,2013-03-10 16:50:00,
2013-03-10 09:55:00,52.8,42.5,30.36,SE,135,0.0,6.0,68,0.00,,,0.00,Weather View 32 v70,2013-03-10 16:55:00,
2013-03-10 10:00:00,53.5,42.8,30.35,SSE,148,1.0,6.0,67,0.00,,,0.00,Weather View 32 v70,2013-03-10 17:00:00,
2013-03-10 10:05:00,54.0,42.9,30.35,SE,126,1.0,6.0,66,0.00,,,0.00,Weather View 32 v70,2013-03-10 17:05:00,
2013-03-10 10:15:00,54.2,43.1,30.35,SE,142,5.0,9.0,66,0.00,,,0.00,Weather View 32 v70,2013-03-10 17:15:00,
2013-03-10 10:20:00,54.4,43.6,30.35,ESE,123,1.0,9.0,67,0.00,,,0.00,Weather View 32 v70,2013-03-10 17:20:00,
2013-03-10 10:25:00,54.8,44.0,30.36,SE,132,0.0,9.0,67,0.00,,,0.00,Weather View 32 v70,2013-03-10 17:25:00,
2013-03-10 10:35:00,55.7,44.5,30.36,SE,132,0.0,9.0,66,0.00,,,0.00,Weather View 32 v70,2013-03-10 17:35:00,
2013-03-10 10:40:00,56.1,44.1,30.36,SE,138,2.0,9.0,64,0.00,,,0.00,Weather View 32 v70,2013-03-10 17:40:00,
2013-03-10 10:45:00,56.0,43.1,30.36,SE,146,0.0,9.0,62,0.00,,,0.00,Weather View 32 v70,2013-03-10 17:45:00,
2013-03-10 10:50:00,56.1,44.1,30.36,SE,146,0.0,9.0,64,0.00,,,0.00,Weather View 32 v70,2013-03-10 17:50:00,
2013-03-10 11:00:00,57.0,44.1,30.36,South,172,0.0,9.0,62,0.00,,,0.00,Weather View 32 v70,2013-03-10 18:00:00,
2013-03-10 11:05:00,56.8,43.9,30.35,South,172,1.0,9.0,62,0.00,,,0.00,Weather View 32 v70,2013-03-10 18:05:00,
2013-03-10 11:10:00,57.2,43.8,30.35,SSE,166,1.0,9.0,61,0.00,,,0.00,Weather View 32 v70,2013-03-10 18:10:00,
2013-03-10 11:15:00,57.7,44.3,30.34,SE,128,0.0,6.0,61,0.00,,,0.00,Weather View 32 v70,2013-03-10 18:15:00,
2013-03-10 11:20:00,58.2,44.8,30.34,SE,135,0.0,6.0,61,0.00,,,0.00,Weather View 32 v70,2013-03-10 18:20:00,
2013-03-10 11:25:00,58.6,44.7,30.34,SE,141,1.0,6.0,60,0.00,,,0.00,Weather View 32 v70,2013-03-10 18:25:00,
2013-03-10 11:30:00,58.7,44.8,30.34,SE,141,1.0,6.0,60,0.00,,,0.00,Weather View 32 v70,2013-03-10 18:30:00,
2013-03-10 11:35:00,59.0,45.1,30.33,SE,143,0.0,6.0,60,0.00,,,0.00,Weather View 32 v70,2013-03-10 18:35:00,
2013-03-10 11:40:00,59.4,45.0,30.33,SSE,154,0.0,6.0,59,0.00,,,0.00,Weather View 32 v70,2013-03-10 18:40:00,
2013-03-10 11:45:00,59.9,44.6,30.33,SSE,148,0.0,6.0,57,0.00,,,0.00,Weather View 32 v70,2013-03-10 18:45:00,
2013-03-10 11:51:00,60.2,44.4,30.32,East,98,0.0,6.0,56,0.00,,,0.00,Weather View 32 v70,2013-03-10 18:51:00,
2013-03-10 12:00:00,60.3,43.1,30.32,ESE,121,1.0,6.0,53,0.00,,,0.00,Weather View 32 v70,2013-03-10 19:00:00,
2013-03-10 12:10:00,60.8,43.5,30.32,SE,142,1.0,6.0,53,0.00,,,0.00,Weather View 32 v70,2013-03-10 19:10:00,
2013-03-10 12:15:00,61.1,43.3,30.32,SE,142,2.0,6.0,52,0.00,,,0.00,Weather View 32 v70,2013-03-10 19:15:00,
2013-03-10 12:25:00,61.4,43.1,30.32,SW,223,0.0,6.0,51,0.00,,,0.00,Weather View 32 v70,2013-03-10 19:25:00,
2013-03-10 12:30:00,61.6,43.3,30.31,SW,223,0.0,6.0,51,0.00,,,0.00,Weather View 32 v70,2013-03-10 19:30:00,
2013-03-10 12:35:00,61.5,41.6,30.31,SW,223,2.0,6.0,48,0.00,,,0.00,Weather View 32 v70,2013-03-10 19:35:00,
2013-03-10 12:40:00,60.9,42.1,30.31,WSW,239,0.0,6.0,50,0.00,,,0.00,Weather View 32 v70,2013-03-10 19:40:00,
2013-03-10 12:45:00,60.8,41.5,30.30,WSW,239,1.0,6.0,49,0.00,,,0.00,Weather View 32 v70,2013-03-10 19:45:00,
2013-03-10 12:50:00,61.1,42.3,30.30,WSW,242,1.0,6.0,50,0.00,,,0.00,Weather View 32 v70,2013-03-10 19:50:00,
2013-03-10 12:55:00,61.2,44.4,30.30,West,271,5.0,7.0,54,0.00,,,0.00,Weather View 32 v70,2013-03-10 19:55:00,
2013-03-10 13:00:00,61.2,42.4,30.30,WSW,245,1.0,7.0,50,0.00,,,0.00,Weather View 32 v70,2013-03-10 20:00:00,
2013-03-10 13:05:00,61.2,42.9,30.30,West,269,3.0,7.0,51,0.00,,,0.00,Weather View 32 v70,2013-03-10 20:05:00,
2013-03-10 13:10:00,61.3,43.0,30.30,West,269,0.0,7.0,51,0.00,,,0.00,Weather View 32 v70,2013-03-10 20:10:00,
2013-03-10 13:15:00,61.6,42.2,30.29,WSW,250,0.0,7.0,49,0.00,,,0.00,Weather View 32 v70,2013-03-10 20:15:00,
2013-03-10 13:20:00,62.0,40.9,30.29,SW,224,2.0,7.0,46,0.00,,,0.00,Weather View 32 v70,2013-03-10 20:20:00,
2013-03-10 13:25:00,62.2,42.2,30.28,WSW,248,4.0,7.0,48,0.00,,,0.00,Weather View 32 v70,2013-03-10 20:25:00,
2013-03-10 13:30:00,62.6,43.7,30.28,West,263,2.0,7.0,50,0.00,,,0.00,Weather View 32 v70,2013-03-10 20:30:00,
2013-03-10 13:35:00,63.0,41.3,30.28,WNW,292,4.0,9.0,45,0.00,,,0.00,Weather View 32 v70,2013-03-10 20:35:00,
2013-03-10 13:40:00,63.3,40.4,30.27,NNE,15,5.0,9.0,43,0.00,,,0.00,Weather View 32 v70,2013-03-10 20:40:00,
2013-03-10 13:45:00,63.7,40.1,30.27,NW,306,0.0,9.0,42,0.00,,,0.00,Weather View 32 v70,2013-03-10 20:45:00,
2013-03-10 13:52:00,64.1,40.5,30.27,NW,311,1.0,9.0,42,0.00,,,0.00,Weather View 32 v70,2013-03-10 20:52:00,
2013-03-10 14:00:00,64.5,40.8,30.26,North,11,2.0,9.0,42,0.00,,,0.00,Weather View 32 v70,2013-03-10 21:00:00,
2013-03-10 14:05:00,65.1,38.8,30.26,NNW,334,4.0,9.0,38,0.00,,,0.00,Weather View 32 v70,2013-03-10 21:05:00,
2013-03-10 14:15:00,65.5,37.8,30.26,NNW,335,1.0,9.0,36,0.00,,,0.00,Weather View 32 v70,2013-03-10 21:15:00,
2013-03-10 14:20:00,65.9,38.1,30.25,NNW,334,0.0,9.0,36,0.00,,,0.00,Weather View 32 v70,2013-03-10 21:20:00,
2013-03-10 14:25:00,66.4,39.3,30.25,West,277,9.0,11.0,37,0.00,,,0.00,Weather View 32 v70,2013-03-10 21:25:00,
2013-03-10 14:35:00,67.1,34.6,30.25,WNW,286,5.0,11.0,30,0.00,,,0.00,Weather View 32 v70,2013-03-10 21:35:00,
2013-03-10 14:40:00,67.3,35.6,30.25,WNW,288,5.0,11.0,31,0.00,,,0.00,Weather View 32 v70,2013-03-10 21:40:00,
2013-03-10 14:50:00,67.9,36.1,30.25,WSW,247,3.0,11.0,31,0.00,,,0.00,Weather View 32 v70,2013-03-10 21:50:00,
2013-03-10 14:55:00,68.3,36.4,30.25,North,350,7.0,11.0,31,0.00,,,0.00,Weather View 32 v70,2013-03-10 21:55:00,
2013-03-10 15:05:00,68.8,31.5,30.24,North,351,9.0,11.0,25,0.00,,,0.00,Weather View 32 v70,2013-03-10 22:05:00,
2013-03-10 15:10:00,69.1,31.7,30.24,North,360,5.0,11.0,25,0.00,,,0.00,Weather View 32 v70,2013-03-10 22:10:00,
2013-03-10 15:15:00,69.4,32.0,30.24,WNW,284,8.0,11.0,25,0.00,,,0.00,Weather View 32 v70,2013-03-10 22:15:00,
2013-03-10 15:20:00,69.7,34.1,30.24,West,273,8.0,13.0,27,0.00,,,0.00,Weather View 32 v70,2013-03-10 22:20:00,
2013-03-10 15:25:00,69.8,33.3,30.24,WNW,288,6.0,13.0,26,0.00,,,0.00,Weather View 32 v70,2013-03-10 22:25:00,
2013-03-10 15:30:00,69.8,32.3,30.24,West,261,5.0,13.0,25,0.00,,,0.00,Weather View 32 v70,2013-03-10 22:30:00,
2013-03-10 15:35:00,70.0,34.4,30.24,West,271,5.0,13.0,27,0.00,,,0.00,Weather View 32 v70,2013-03-10 22:35:00,
2013-03-10 15:45:00,70.5,33.9,30.24,West,273,4.0,13.0,26,0.00,,,0.00,Weather View 32 v70,2013-03-10 22:45:00,
2013-03-10 15:50:00,70.6,34.0,30.24,WSW,257,4.0,13.0,26,0.00,,,0.00,Weather View 32 v70,2013-03-10 22:50:00,
2013-03-10 15:55:00,70.8,35.1,30.23,West,264,3.0,13.0,27,0.00,,,0.00,Weather View 32 v70,2013-03-10 22:55:00,
2013-03-10 16:00:00,70.8,36.9,30.24,West,271,6.0,13.0,29,0.00,,,0.00,Weather View 32 v70,2013-03-10 23:00:00,
2013-03-10 16:05:00,71.1,34.4,30.23,West,267,5.0,13.0,26,0.00,,,0.00,Weather View 32 v70,2013-03-10 23:05:00,
2013-03-10 16:10:00,71.2,34.5,30.23,West,266,5.0,13.0,26,0.00,,,0.00,Weather View 32 v70,2013-03-10 23:10:00,
2013-03-10 16:15:00,71.3,32.6,30.23,WNW,285,2.0,13.0,24,0.00,,,0.00,Weather View 32 v70,2013-03-10 23:15:00,
2013-03-10 16:20:00,71.5,33.7,30.23,WNW,284,6.0,12.0,25,0.00,,,0.00,Weather View 32 v70,2013-03-10 23:20:00,
2013-03-10 16:30:00,72.0,34.2,30.22,North,360,3.0,12.0,25,0.00,,,0.00,Weather View 32 v70,2013-03-10 23:30:00,
2013-03-10 16:35:00,72.3,35.4,30.22,NW,309,4.0,12.0,26,0.00,,,0.00,Weather View 32 v70,2013-03-10 23:35:00,
2013-03-10 16:45:00,72.6,32.6,30.22,NW,308,2.0,12.0,23,0.00,,,0.00,Weather View 32 v70,2013-03-10 23:45:00,
2013-03-10 16:50:00,72.5,32.5,30.22,NW,308,0.0,12.0,23,0.00,,,0.00,Weather View 32 v70,2013-03-10 23:50:00,
2013-03-10 16:55:00,72.6,33.6,30.22,NW,308,1.0,12.0,24,0.00,,,0.00,Weather View 32 v70,2013-03-10 23:55:00,
2013-03-10 17:00:00,72.7,31.6,30.22,NW,308,0.0,12.0,22,0.00,,,0.00,Weather View 32 v70,2013-03-11 00:00:00,
2013-03-10 17:05:00,72.7,31.6,30.22,NW,308,0.0,8.0,22,0.00,,,0.00,Weather View 32 v70,2013-03-11 00:05:00,
2013-03-10 17:10:00,72.7,42.6,30.21,SE,146,4.0,8.0,34,0.00,,,0.00,Weather View 32 v70,2013-03-11 00:10:00,
2013-03-10 17:15:00,72.2,43.0,30.22,SSE,153,5.0,8.0,35,0.00,,,0.00,Weather View 32 v70,2013-03-11 00:15:00,
2013-03-10 17:20:00,71.6,43.9,30.22,ESE,117,4.0,8.0,37,0.00,,,0.00,Weather View 32 v70,2013-03-11 00:20:00,
2013-03-10 17:30:00,70.5,42.9,30.21,ESE,113,9.0,9.0,37,0.00,,,0.00,Weather View 32 v70,2013-03-11 00:30:00,
2013-03-10 17:35:00,70.1,43.2,30.22,SSE,154,2.0,9.0,38,0.00,,,0.00,Weather View 32 v70,2013-03-11 00:35:00,
2013-03-10 17:45:00,69.5,42.7,30.22,SSE,148,2.0,9.0,38,0.00,,,0.00,Weather View 32 v70,2013-03-11 00:45:00,
2013-03-10 17:50:00,69.3,42.5,30.21,SE,128,1.0,9.0,38,0.00,,,0.00,Weather View 32 v70,2013-03-11 00:50:00,
2013-03-10 18:00:00,68.8,42.1,30.22,SSE,153,4.0,9.0,38,0.00,,,0.00,Weather View 32 v70,2013-03-11 01:00:00,
2013-03-10 18:05:00,68.6,42.6,30.22,SSE,152,2.0,9.0,39,0.00,,,0.00,Weather View 32 v70,2013-03-11 01:05:00,
2013-03-10 18:10:00,68.4,42.4,30.22,ESE,112,5.0,9.0,39,0.00,,,0.00,Weather View 32 v70,2013-03-11 01:10:00,
2013-03-10 18:15:00,68.0,42.7,30.22,SE,144,1.0,9.0,40,0.00,,,0.00,Weather View 32 v70,2013-03-11 01:15:00,
2013-03-10 18:20:00,67.7,43.1,30.23,SE,133,2.0,9.0,41,0.00,,,0.00,Weather View 32 v70,2013-03-11 01:20:00,
2013-03-10 18:25:00,67.4,43.5,30.22,SE,124,0.0,9.0,42,0.00,,,0.00,Weather View 32 v70,2013-03-11 01:25:00,
2013-03-10 18:35:00,66.6,44.0,30.23,SE,124,1.0,9.0,44,0.00,,,0.00,Weather View 32 v70,2013-03-11 01:35:00,
2013-03-10 18:40:00,66.2,43.6,30.23,SE,132,2.0,9.0,44,0.00,,,0.00,Weather View 32 v70,2013-03-11 01:40:00,
2013-03-10 18:45:00,65.8,43.8,30.23,SE,133,2.0,9.0,45,0.00,,,0.00,Weather View 32 v70,2013-03-11 01:45:00,
2013-03-10 18:55:00,65.0,43.7,30.23,SE,140,0.0,9.0,46,0.00,,,0.00,Weather View 32 v70,2013-03-11 01:55:00,
2013-03-10 19:00:00,64.6,43.9,30.23,SE,139,1.0,9.0,47,0.00,,,0.00,Weather View 32 v70,2013-03-11 02:00:00,
2013-03-10 19:05:00,64.2,44.0,30.23,SE,139,0.0,9.0,48,0.00,,,0.00,Weather View 32 v70,2013-03-11 02:05:00,
2013-03-10 19:10:00,63.7,43.6,30.23,SSE,150,2.0,7.0,48,0.00,,,0.00,Weather View 32 v70,2013-03-11 02:10:00,
2013-03-10 19:15:00,63.4,43.9,30.23,SSE,150,0.0,7.0,49,0.00,,,0.00,Weather View 32 v70,2013-03-11 02:15:00,
2013-03-10 19:20:00,63.0,43.5,30.23,SSE,150,0.0,7.0,49,0.00,,,0.00,Weather View 32 v70,2013-03-11 02:20:00,
2013-03-10 19:30:00,62.4,44.5,30.23,SE,143,1.0,6.0,52,0.00,,,0.00,Weather View 32 v70,2013-03-11 02:30:00,
2013-03-10 19:35:00,62.0,44.6,30.23,SE,128,0.0,6.0,53,0.00,,,0.00,Weather View 32 v70,2013-03-11 02:35:00,
2013-03-10 19:40:00,61.7,44.4,30.23,SE,127,0.0,6.0,53,0.00,,,0.00,Weather View 32 v70,2013-03-11 02:40:00,
2013-03-10 19:45:00,61.3,44.5,30.24,ESE,113,0.0,6.0,54,0.00,,,0.00,Weather View 32 v70,2013-03-11 02:45:00,
2013-03-10 19:50:00,61.0,44.2,30.24,ESE,111,1.0,6.0,54,0.00,,,0.00,Weather View 32 v70,2013-03-11 02:50:00,
2013-03-10 19:55:00,60.7,44.4,30.24,ESE,113,0.0,6.0,55,0.00,,,0.00,Weather View 32 v70,2013-03-11 02:55:00,
2013-03-10 20:05:00,60.2,44.4,30.24,ESE,112,1.0,6.0,56,0.00,,,0.00,Weather View 32 v70,2013-03-11 03:05:00,
2013-03-10 20:10:00,59.8,44.0,30.24,ESE,112,0.0,6.0,56,0.00,,,0.00,Weather View 32 v70,2013-03-11 03:10:00,
2013-03-10 20:15:00,59.7,43.9,30.24,ESE,112,0.0,6.0,56,0.00,,,0.00,Weather View 32 v70,2013-03-11 03:15:00,
2013-03-10 20:20:00,59.5,43.8,30.24,ESE,108,0.0,6.0,56,0.00,,,0.00,Weather View 32 v70,2013-03-11 03:20:00,
2013-03-10 20:30:00,59.3,43.1,30.24,ESE,108,2.0,6.0,55,0.00,,,0.00,Weather View 32 v70,2013-03-11 03:30:00,
2013-03-10 20:35:00,59.1,43.4,30.24,ESE,108,0.0,6.0,56,0.00,,,0.00,Weather View 32 v70,2013-03-11 03:35:00,
2013-03-10 20:45:00,58.8,43.1,30.24,ESE,108,0.0,6.0,56,0.00,,,0.00,Weather View 32 v70,2013-03-11 03:45:00,
2013-03-10 20:50:00,58.6,42.9,30.24,ESE,108,0.0,4.0,56,0.00,,,0.00,Weather View 32 v70,2013-03-11 03:50:00,
2013-03-10 20:55:00,58.4,42.7,30.24,ESE,108,0.0,4.0,56,0.00,,,0.00,Weather View 32 v70,2013-03-11 03:55:00,
2013-03-10 21:00:00,58.4,42.7,30.25,ESE,108,0.0,4.0,56,0.00,,,0.00,Weather View 32 v70,2013-03-11 04:00:00,
2013-03-10 21:05:00,58.2,43.0,30.25,ESE,108,0.0,4.0,57,0.00,,,0.00,Weather View 32 v70,2013-03-11 04:05:00,
2013-03-10 21:10:00,58.1,42.9,30.25,ESE,107,2.0,4.0,57,0.00,,,0.00,Weather View 32 v70,2013-03-11 04:10:00,
2013-03-10 21:15:00,58.0,43.3,30.26,ESE,107,0.0,4.0,58,0.00,,,0.00,Weather View 32 v70,2013-03-11 04:15:00,
2013-03-10 21:25:00,57.5,43.3,30.25,ESE,107,2.0,4.0,59,0.00,,,0.00,Weather View 32 v70,2013-03-11 04:25:00,
2013-03-10 21:30:00,57.3,43.1,30.25,ESE,107,1.0,4.0,59,0.00,,,0.00,Weather View 32 v70,2013-03-11 04:30:00,
2013-03-10 21:35:00,57.0,43.2,30.26,ESE,107,1.0,4.0,60,0.00,,,0.00,Weather View 32 v70,2013-03-11 04:35:00,
2013-03-10 21:45:00,56.3,43.0,30.25,ESE,106,0.0,4.0,61,0.00,,,0.00,Weather View 32 v70,2013-03-11 04:45:00,
2013-03-10 21:50:00,55.9,43.0,30.26,ESE,106,0.0,4.0,62,0.00,,,0.00,Weather View 32 v70,2013-03-11 04:50:00,
2013-03-10 21:55:00,55.5,43.1,30.26,ESE,106,0.0,4.0,63,0.00,,,0.00,Weather View 32 v70,2013-03-11 04:55:00,
2013-03-10 22:00:00,55.0,43.0,30.26,ESE,106,0.0,4.0,64,0.00,,,0.00,Weather View 32 v70,2013-03-11 05:00:00,
2013-03-10 22:05:00,54.6,42.6,30.26,ESE,106,1.0,4.0,64,0.00,,,0.00,Weather View 32 v70,2013-03-11 05:05:00,
2013-03-10 22:15:00,54.0,42.9,30.26,ESE,106,1.0,4.0,66,0.00,,,0.00,Weather View 32 v70,2013-03-11 05:15:00,
2013-03-10 22:20:00,53.7,42.6,30.26,ESE,106,0.0,4.0,66,0.00,,,0.00,Weather View 32 v70,2013-03-11 05:20:00,
2013-03-10 22:30:00,53.3,42.6,30.26,ESE,106,0.0,4.0,67,0.00,,,0.00,Weather View 32 v70,2013-03-11 05:30:00,
2013-03-10 22:35:00,53.1,42.8,30.26,ESE,106,0.0,4.0,68,0.00,,,0.00,Weather View 32 v70,2013-03-11 05:35:00,
2013-03-10 22:40:00,53.0,42.7,30.26,ESE,106,0.0,2.0,68,0.00,,,0.00,Weather View 32 v70,2013-03-11 05:40:00,
2013-03-10 22:45:00,53.0,42.7,30.26,ESE,106,0.0,2.0,68,0.00,,,0.00,Weather View 32 v70,2013-03-11 05:45:00,
2013-03-10 22:50:00,52.9,42.6,30.26,ESE,106,0.0,2.0,68,0.00,,,0.00,Weather View 32 v70,2013-03-11 05:50:00,
2013-03-10 22:55:00,52.8,42.5,30.26,ESE,106,0.0,2.0,68,0.00,,,0.00,Weather View 32 v70,2013-03-11 05:55:00,
2013-03-10 23:05:00,52.6,42.3,30.26,ESE,106,0.0,2.0,68,0.00,,,0.00,Weather View 32 v70,2013-03-11 06:05:00,
2013-03-10 23:10:00,52.4,42.5,30.26,ESE,106,0.0,2.0,69,0.00,,,0.00,Weather View 32 v70,2013-03-11 06:10:00,
2013-03-10 23:15:00,52.3,42.4,30.26,ESE,106,0.0,2.0,69,0.00,,,0.00,Weather View 32 v70,2013-03-11 06:15:00,
2013-03-10 23:20:00,52.2,42.3,30.26,ESE,106,0.0,2.0,69,0.00,,,0.00,Weather View 32 v70,2013-03-11 06:20:00,
2013-03-10 23:25:00,52.1,42.2,30.26,ESE,106,0.0,1.0,69,0.00,,,0.00,Weather View 32 v70,2013-03-11 06:25:00,
2013-03-10 23:30:00,51.9,42.0,30.26,ESE,106,0.0,2.0,69,0.00,,,0.00,Weather View 32 v70,2013-03-11 06:30:00,
2013-03-10 23:35:00,51.7,41.8,30.26,ESE,106,0.0,2.0,69,0.00,,,0.00,Weather View 32 v70,2013-03-11 06:35:00,
2013-03-10 23:40:00,51.5,41.3,30.26,ESE,106,0.0,4.0,68,0.00,,,0.00,Weather View 32 v70,2013-03-11 06:40:00,
2013-03-10 23:50:00,51.3,41.5,30.26,ESE,106,0.0,4.0,69,0.00,,,0.00,Weather View 32 v70,2013-03-11 06:50:00,
2013-03-10 23:55:00,51.2,41.0,30.26,ESE,106,0.0,4.0,68,0.00,,,0.00,Weather View 32 v70,2013-03-11 06:55:00,